Time;durP1;ratioP1;P1;durP2;ratioP2;P2;SDS_P1;SDS_P2;PMS_P1;PMS_P2;Temp;Humidity;BMP_temperature;BMP_pressure;BME280_temperature;BME280_humidity;BME280_pressure;Samples;Min_cycle;Max_cycle;Signal;HPM_P1;HPM_P2
2022/07/07 00:01:26;;;;;;;0.47;0.47;;;;;;;14.57;91.73;100725.31;5072855;28;20175;-73
2022/07/07 00:03:52;;;;;;;0.00;0.00;;;;;;;14.47;93.31;100724.88;5072880;28;20490;-75
2022/07/07 00:06:18;;;;;;;0.07;0.07;;;;;;;14.39;95.75;100717.44;5072900;28;20178;-76
2022/07/07 00:08:44;;;;;;;0.00;0.00;;;;;;;14.38;95.72;100722.13;5070859;28;20263;-77
2022/07/07 00:11:09;;;;;;;0.30;0.30;;;;;;;14.37;96.11;100715.03;5072663;28;20202;-76
2022/07/07 00:13:35;;;;;;;0.20;0.20;;;;;;;14.37;96.70;100714.22;5071950;28;20167;-72
2022/07/07 00:16:00;;;;;;;2.60;0.83;;;;;;;14.33;98.17;100696.78;5072538;28;20630;-76
2022/07/07 00:18:25;;;;;;;0.00;0.00;;;;;;;14.29;99.59;100704.88;5071741;28;20186;-74
2022/07/07 00:20:51;;;;;;;0.00;0.00;;;;;;;14.25;99.66;100699.22;5072826;28;20198;-75
2022/07/07 00:23:16;;;;;;;0.77;0.30;;;;;;;14.26;100.00;100711.03;5072485;28;20189;-76
2022/07/07 00:25:41;;;;;;;0.27;0.20;;;;;;;14.18;100.00;100696.19;5072427;28;20692;-76
2022/07/07 00:28:07;;;;;;;0.00;0.00;;;;;;;14.19;100.00;100691.50;5071771;28;20217;-76
2022/07/07 00:30:32;;;;;;;0.10;0.10;;;;;;;14.19;100.00;100692.31;5072389;28;20171;-77
2022/07/07 00:33:00;;;;;;;0.47;0.37;;;;;;;14.14;100.00;100688.91;5068738;28;20800;-75
2022/07/07 00:35:25;;;;;;;0.00;0.00;;;;;;;14.13;100.00;100690.88;5070908;28;20539;-75
2022/07/07 00:37:51;;;;;;;0.30;0.30;;;;;;;14.16;100.00;100686.66;5071801;28;20175;-76
2022/07/07 00:40:16;;;;;;;0.00;0.00;;;;;;;14.10;100.00;100683.28;5072172;28;20262;-76
2022/07/07 00:42:42;;;;;;;0.20;0.20;;;;;;;14.12;100.00;100666.47;5072036;28;20250;-77
2022/07/07 00:45:08;;;;;;;0.00;0.00;;;;;;;14.07;100.00;100675.72;5072058;28;20660;-77
2022/07/07 00:47:33;;;;;;;0.70;0.70;;;;;;;13.99;100.00;100671.03;5071813;28;20517;-75
2022/07/07 00:49:59;;;;;;;0.23;0.23;;;;;;;13.98;100.00;100670.22;5071591;28;20196;-76
2022/07/07 00:52:24;;;;;;;0.07;0.07;;;;;;;14.01;100.00;100668.75;5071706;28;20202;-74
2022/07/07 00:54:55;;;;;;;0.40;0.30;;;;;;;14.00;100.00;100667.16;5072072;28;20265;-77
2022/07/07 00:57:22;;;;;;;0.23;0.23;;;;;;;13.99;100.00;100657.31;5071613;28;20631;-76
2022/07/07 00:59:47;;;;;;;0.40;0.40;;;;;;;13.97;100.00;100651.34;5071625;28;20175;-77
2022/07/07 01:02:13;;;;;;;1.20;1.10;;;;;;;13.98;100.00;100658.44;5071618;28;20514;-77
2022/07/07 01:04:38;;;;;;;4.73;1.03;;;;;;;14.00;100.00;100656.16;5071655;28;20174;-77
2022/07/07 01:07:04;;;;;;;1.10;1.07;;;;;;;13.98;100.00;100659.25;5071814;28;20211;-77
2022/07/07 01:09:30;;;;;;;0.50;0.50;;;;;;;13.98;100.00;100653.75;5071185;28;20273;-75
2022/07/07 01:11:57;;;;;;;0.60;0.60;;;;;;;13.97;100.00;100643.91;5071525;28;20666;-76
2022/07/07 01:14:23;;;;;;;0.53;0.53;;;;;;;13.90;100.00;100651.06;5070978;28;20531;-77
2022/07/07 01:16:49;;;;;;;0.00;0.00;;;;;;;13.86;100.00;100645.38;5071107;28;20178;-77
2022/07/07 01:19:16;;;;;;;3.80;1.13;;;;;;;13.78;100.00;100637.19;5071247;28;20181;-77
2022/07/07 01:21:54;;;;;;;0.47;0.47;;;;;;;13.69;100.00;100646.25;5071224;28;20190;-74
2022/07/07 01:24:24;;;;;;;1.60;1.50;;;;;;;13.59;100.00;100635.59;5069926;28;20224;-74
2022/07/07 01:26:50;;;;;;;0.53;0.53;;;;;;;13.53;100.00;100642.41;5071107;28;20194;-75
2022/07/07 01:29:15;;;;;;;3.87;0.80;;;;;;;13.50;100.00;100634.03;5068471;28;20216;-77
2022/07/07 01:31:41;;;;;;;1.90;1.63;;;;;;;13.43;100.00;100637.25;5071086;28;20202;-74
2022/07/07 01:34:06;;;;;;;0.70;0.70;;;;;;;13.37;100.00;100638.56;5071066;28;20625;-75
2022/07/07 01:36:32;;;;;;;1.33;1.13;;;;;;;13.36;100.00;100625.97;5071221;28;20646;-77
2022/07/07 01:38:57;;;;;;;0.80;0.80;;;;;;;13.30;100.00;100624.53;5070646;28;20622;-76
2022/07/07 01:41:22;;;;;;;10.23;1.60;;;;;;;13.27;100.00;100625.19;5071007;28;20508;-73
2022/07/07 01:43:47;;;;;;;5.50;2.00;;;;;;;13.25;100.00;100616.47;5070992;28;20531;-76
2022/07/07 01:46:13;;;;;;;0.80;0.60;;;;;;;13.23;100.00;100616.00;5070900;28;20540;-77
2022/07/07 01:48:39;;;;;;;1.67;1.57;;;;;;;13.21;100.00;100607.28;5070330;28;20179;-77
2022/07/07 01:51:05;;;;;;;1.10;1.10;;;;;;;13.21;100.00;100599.84;5069656;28;20224;-74
2022/07/07 01:53:30;;;;;;;1.27;1.17;;;;;;;13.18;100.00;100599.69;5070879;28;20631;-76
2022/07/07 01:56:01;;;;;;;1.20;1.20;;;;;;;13.20;100.00;100597.44;5071160;28;20175;-75
2022/07/07 01:58:26;;;;;;;12.20;1.07;;;;;;;13.22;100.00;100592.44;5070409;28;20207;-76
2022/07/07 02:00:51;;;;;;;1.57;1.33;;;;;;;13.24;100.00;100587.41;5069413;28;20214;-75
2022/07/07 02:03:17;;;;;;;1.53;1.43;;;;;;;13.25;100.00;100586.28;5069520;28;20174;-75
2022/07/07 02:05:42;;;;;;;2.83;2.63;;;;;;;13.22;100.00;100578.72;5070742;28;20257;-77
2022/07/07 02:08:07;;;;;;;1.70;1.60;;;;;;;13.23;100.00;100574.84;5070282;28;20657;-74
2022/07/07 02:13:16;;;;;;;6.90;1.43;;;;;;;13.25;100.00;100569.81;5069990;28;20189;-79
2022/07/07 02:15:42;;;;;;;0.57;0.57;;;;;;;13.27;100.00;100573.84;5070607;28;20577;-77
2022/07/07 02:18:07;;;;;;;4.63;0.93;;;;;;;13.26;100.00;100561.25;5070191;28;20218;-74
2022/07/07 02:20:32;;;;;;;1.13;1.13;;;;;;;13.28;100.00;100571.91;5069412;28;20175;-77
2022/07/07 02:22:58;;;;;;;1.33;1.23;;;;;;;13.28;100.00;100553.50;5070503;28;20566;-75
2022/07/07 02:25:23;;;;;;;1.93;1.83;;;;;;;13.29;100.00;100565.28;5070688;28;20554;-74
2022/07/07 02:27:49;;;;;;;2.30;2.20;;;;;;;13.31;100.00;100560.31;5070025;28;20174;-77
2022/07/07 02:30:15;;;;;;;7.40;2.17;;;;;;;13.34;100.00;100562.38;5070430;28;20170;-76
2022/07/07 02:32:40;;;;;;;2.03;1.93;;;;;;;13.34;100.00;100556.91;5070405;28;20610;-73
2022/07/07 02:35:06;;;;;;;1.30;1.23;;;;;;;13.36;100.00;100551.88;5070475;28;20178;-76
2022/07/07 02:37:31;;;;;;;2.53;2.40;;;;;;;13.35;100.00;100544.78;5068839;28;20183;-76
2022/07/07 02:39:56;;;;;;;2.27;2.17;;;;;;;13.36;100.00;100538.97;5070910;28;20246;-75
2022/07/07 02:42:22;;;;;;;7.20;3.40;;;;;;;13.37;100.00;100537.84;5074270;28;20292;-76
2022/07/07 02:44:47;;;;;;;2.20;2.10;;;;;;;13.40;100.00;100537.19;5074337;28;20284;-73
2022/07/07 02:47:12;;;;;;;2.43;2.30;;;;;;;13.41;100.00;100535.22;5072701;28;20180;-76
2022/07/07 02:49:37;;;;;;;4.13;3.83;;;;;;;13.43;100.00;100540.38;5073806;28;20192;-74
2022/07/07 02:52:04;;;;;;;1.83;1.73;;;;;;;13.48;100.00;100543.78;5074074;28;20262;-74
2022/07/07 02:54:29;;;;;;;6.30;5.70;;;;;;;13.49;100.00;100539.91;5074126;28;20224;-74
2022/07/07 02:56:55;;;;;;;3.07;2.87;;;;;;;13.53;100.00;100540.84;5073880;28;20180;-74
2022/07/07 02:59:20;;;;;;;3.30;3.10;;;;;;;13.56;100.00;100539.38;5073559;28;20174;-73
2022/07/07 03:01:45;;;;;;;1.43;1.43;;;;;;;13.56;100.00;100533.88;5072580;28;20297;-74
2022/07/07 03:04:11;;;;;;;4.47;4.17;;;;;;;13.58;100.00;100531.63;5073964;28;20177;-74
2022/07/07 03:06:37;;;;;;;0.80;0.80;;;;;;;13.57;100.00;100528.06;5073611;28;20209;-75
2022/07/07 03:09:02;;;;;;;3.33;3.03;;;;;;;13.62;100.00;100530.66;5073595;28;20169;-73
2022/07/07 03:11:27;;;;;;;2.23;2.13;;;;;;;13.62;100.00;100525.16;5073785;28;20181;-75
2022/07/07 03:13:53;;;;;;;2.63;1.63;;;;;;;13.64;100.00;100524.81;5071633;28;20535;-74
2022/07/07 03:16:18;;;;;;;5.20;4.70;;;;;;;13.66;100.00;100523.34;5073603;28;20309;-74
2022/07/07 03:18:43;;;;;;;1.20;1.20;;;;;;;13.65;100.00;100521.75;5073229;28;20182;-73
2022/07/07 03:21:09;;;;;;;3.63;3.33;;;;;;;13.65;100.00;100527.25;5073617;28;20539;-73
2022/07/07 03:23:34;;;;;;;1.60;1.50;;;;;;;13.67;100.00;100524.16;5073676;28;20232;-73
2022/07/07 03:25:59;;;;;;;4.37;3.97;;;;;;;13.69;100.00;100513.66;5073504;28;20533;-73
2022/07/07 03:28:25;;;;;;;0.90;0.90;;;;;;;13.73;100.00;100516.53;5071600;28;20702;-74
2022/07/07 03:30:50;;;;;;;1.93;1.83;;;;;;;13.73;100.00;100517.34;5073484;28;20171;-73
2022/07/07 03:33:15;;;;;;;3.80;2.67;;;;;;;13.74;100.00;100521.69;5073473;28;20186;-75
2022/07/07 03:35:41;;;;;;;3.30;3.10;;;;;;;13.73;100.00;100505.53;5073396;28;20174;-73
2022/07/07 03:38:07;;;;;;;3.97;3.73;;;;;;;13.73;100.00;100509.09;5072994;28;20167;-75
2022/07/07 03:40:34;;;;;;;4.80;4.30;;;;;;;13.74;100.00;100512.66;5073294;28;20171;-72
2022/07/07 03:42:59;;;;;;;4.00;3.60;;;;;;;13.74;100.00;100505.22;5073064;28;20285;-74
2022/07/07 03:45:24;;;;;;;4.57;4.23;;;;;;;13.74;100.00;100505.22;5073131;28;20239;-74
2022/07/07 03:47:50;;;;;;;6.83;6.30;;;;;;;13.76;100.00;100502.97;5072599;28;20179;-73
2022/07/07 03:50:15;;;;;;;5.70;4.53;;;;;;;13.74;100.00;100502.47;5072918;28;20265;-76
2022/07/07 03:52:41;;;;;;;2.00;1.90;;;;;;;13.75;100.00;100489.56;5071961;28;20178;-73
2022/07/07 03:55:07;;;;;;;5.07;4.77;;;;;;;13.75;100.00;100489.56;5072925;28;20660;-72
2022/07/07 03:57:33;;;;;;;5.30;4.87;;;;;;;13.76;100.00;100480.19;5072920;28;20678;-72
2022/07/07 03:59:58;;;;;;;2.97;2.77;;;;;;;13.77;100.00;100490.84;5072880;28;20220;-73
2022/07/07 04:02:23;;;;;;;2.17;2.07;;;;;;;13.78;100.00;100486.16;5072867;28;20569;-72
2022/07/07 04:04:49;;;;;;;8.20;3.67;;;;;;;13.78;100.00;100486.16;5072744;28;20175;-73
2022/07/07 04:07:14;;;;;;;2.83;2.63;;;;;;;13.78;100.00;100475.16;5072560;28;20269;-72
2022/07/07 04:09:39;;;;;;;2.97;2.77;;;;;;;13.80;100.00;100470.16;5072272;28;20179;-72
2022/07/07 04:12:05;;;;;;;3.60;3.20;;;;;;;13.82;100.00;100473.38;5072653;28;20261;-74
2022/07/07 04:14:30;;;;;;;11.90;3.73;;;;;;;13.84;100.00;100471.09;5071796;28;20174;-74
2022/07/07 04:16:57;;;;;;;2.93;2.13;;;;;;;13.88;100.00;100472.03;5072296;28;20185;-73
2022/07/07 04:19:22;;;;;;;4.03;3.73;;;;;;;13.90;100.00;100473.31;5072109;28;20179;-74
2022/07/07 04:21:47;;;;;;;1.67;1.57;;;;;;;13.92;100.00;100475.72;5072346;28;20202;-72
2022/07/07 04:24:13;;;;;;;4.10;3.80;;;;;;;13.93;100.00;100474.59;5070451;28;20193;-75
2022/07/07 04:26:38;;;;;;;3.80;3.50;;;;;;;13.93;100.00;100464.41;5069247;28;20265;-75
2022/07/07 04:29:04;;;;;;;3.37;3.17;;;;;;;13.95;100.00;100475.06;5071856;28;20638;-75
2022/07/07 04:31:29;;;;;;;5.97;3.87;;;;;;;13.96;100.00;100462.94;5072208;28;20269;-73
2022/07/07 04:33:54;;;;;;;4.63;3.90;;;;;;;13.97;100.00;100465.34;5072162;28;20200;-75
2022/07/07 04:36:20;;;;;;;5.60;5.20;;;;;;;13.99;100.00;100459.50;5072179;28;20213;-73
2022/07/07 04:38:45;;;;;;;4.63;4.33;;;;;;;13.98;100.00;100466.94;5071705;28;20236;-74
2022/07/07 04:41:10;;;;;;;6.30;5.87;;;;;;;13.96;100.00;100461.00;5072471;28;20204;-72
2022/07/07 04:43:36;;;;;;;12.03;4.60;;;;;;;13.95;100.00;100464.06;5071871;28;20179;-75
2022/07/07 04:46:01;;;;;;;1.33;1.20;;;;;;;13.96;100.00;100460.19;5071887;28;20178;-69
2022/07/07 04:48:27;;;;;;;3.30;3.07;;;;;;;13.96;100.00;100457.44;5071595;28;20642;-74
2022/07/07 04:50:53;;;;;;;2.40;2.30;;;;;;;13.94;100.00;100462.47;5070484;28;20380;-74
2022/07/07 04:53:18;;;;;;;3.73;2.50;;;;;;;13.92;100.00;100456.50;5071703;28;20261;-75
2022/07/07 04:55:44;;;;;;;2.87;2.67;;;;;;;13.90;100.00;100453.28;5071749;28;20224;-75
2022/07/07 04:58:09;;;;;;;3.37;3.17;;;;;;;13.90;100.00;100453.28;5071276;28;20677;-76
2022/07/07 05:00:35;;;;;;;1.43;1.33;;;;;;;13.91;100.00;100454.91;5071564;28;20532;-74
2022/07/07 05:03:00;;;;;;;7.10;6.50;;;;;;;13.88;100.00;100452.78;5071311;28;20202;-74
2022/07/07 05:05:25;;;;;;;2.13;2.03;;;;;;;13.85;100.00;100454.28;5071553;28;20178;-75
2022/07/07 05:07:51;;;;;;;2.90;2.70;;;;;;;13.86;100.00;100447.63;5071513;28;20171;-74
2022/07/07 05:10:16;;;;;;;3.67;3.47;;;;;;;13.84;100.00;100449.91;5071829;28;20181;-75
2022/07/07 05:12:41;;;;;;;5.43;4.93;;;;;;;13.84;100.00;100443.63;5070243;28;20271;-75
2022/07/07 05:15:07;;;;;;;1.17;1.13;;;;;;;13.85;100.00;100443.28;5071071;28;20182;-76
2022/07/07 05:17:33;;;;;;;6.80;6.20;;;;;;;13.83;100.00;100440.06;5071528;28;20181;-76
2022/07/07 05:19:58;;;;;;;5.10;4.70;;;;;;;13.85;100.00;100447.97;5070185;28;20526;-76
2022/07/07 05:22:24;;;;;;;3.43;3.23;;;;;;;13.86;100.00;100447.63;5070041;28;20213;-75
2022/07/07 05:24:49;;;;;;;3.17;2.97;;;;;;;13.86;100.00;100450.38;5071420;28;20658;-75
2022/07/07 05:27:15;;;;;;;2.63;2.53;;;;;;;13.90;100.00;100431.31;5071100;28;20185;-76
2022/07/07 05:29:40;;;;;;;3.53;3.33;;;;;;;13.90;100.00;100429.38;5070737;28;20213;-76
2022/07/07 05:32:06;;;;;;;3.57;3.27;;;;;;;13.94;100.00;100432.25;5071361;28;20183;-76
2022/07/07 05:34:31;;;;;;;4.90;4.50;;;;;;;13.95;100.00;100431.13;5071162;28;20187;-75
2022/07/07 05:36:56;;;;;;;2.83;2.67;;;;;;;13.96;100.00;100439.00;5070825;28;20174;-75
2022/07/07 05:39:24;;;;;;;3.57;3.37;;;;;;;14.04;100.00;100447.53;5071056;28;20641;-75
2022/07/07 05:41:49;;;;;;;2.03;1.90;;;;;;;14.03;100.00;100434.91;5070957;28;20198;-75
2022/07/07 05:44:15;;;;;;;1.90;1.80;;;;;;;14.07;100.00;100433.13;5071147;28;20268;-74
2022/07/07 05:46:40;;;;;;;3.87;3.63;;;;;;;14.09;100.00;100433.59;5066910;28;20188;-76
2022/07/07 05:49:05;;;;;;;3.10;1.63;;;;;;;14.11;100.00;100429.38;5070223;28;20195;-76
2022/07/07 05:51:31;;;;;;;23.20;2.70;;;;;;;14.14;100.00;100431.44;5071039;28;20631;-75
2022/07/07 05:53:56;;;;;;;0.80;0.80;;;;;;;14.24;100.00;100430.25;5069605;28;20174;-76
2022/07/07 05:56:22;;;;;;;4.43;4.13;;;;;;;14.30;100.00;100423.38;5069785;28;20522;-76
2022/07/07 05:58:47;;;;;;;3.40;3.13;;;;;;;14.31;100.00;100427.75;5068490;28;20186;-75
2022/07/07 06:01:13;;;;;;;2.23;2.03;;;;;;;14.35;100.00;100430.63;5070583;28;20651;-75
2022/07/07 06:03:38;;;;;;;2.80;2.60;;;;;;;14.35;100.00;100436.13;5070941;28;20232;-76
2022/07/07 06:06:04;;;;;;;1.17;1.07;;;;;;;14.35;100.00;100430.63;5070876;28;20225;-76
2022/07/07 06:08:29;;;;;;;2.30;2.20;;;;;;;14.41;100.00;100432.03;5070876;28;20230;-75
2022/07/07 06:10:55;;;;;;;1.93;1.83;;;;;;;14.41;100.00;100432.03;5075045;28;20201;-75
2022/07/07 06:13:21;;;;;;;1.97;1.87;;;;;;;14.41;100.00;100434.78;5079836;28;20254;-75
2022/07/07 06:15:46;;;;;;;1.97;1.80;;;;;;;14.39;100.00;100431.56;5072133;28;20637;-75
2022/07/07 06:18:12;;;;;;;1.47;1.47;;;;;;;14.37;100.00;100436.59;5070610;28;20261;-76
2022/07/07 06:20:37;;;;;;;2.87;2.67;;;;;;;14.33;100.00;100435.69;5070802;28;20538;-76
2022/07/07 06:23:03;;;;;;;4.47;4.07;;;;;;;14.32;100.00;100431.28;5070792;28;20597;-75
2022/07/07 06:25:28;;;;;;;3.00;2.90;;;;;;;14.35;100.00;100441.63;5070679;28;20179;-76
2022/07/07 06:27:54;;;;;;;6.13;5.77;;;;;;;14.36;100.00;100452.28;5070655;28;20189;-78
2022/07/07 06:30:20;;;;;;;5.37;4.93;;;;;;;14.36;100.00;100446.00;5070758;28;20476;-77
2022/07/07 06:32:46;;;;;;;2.60;2.40;;;;;;;14.44;100.00;100434.13;5070543;28;20249;-77
2022/07/07 06:35:12;;;;;;;3.10;2.90;;;;;;;14.40;100.00;100442.22;5069579;28;20171;-76
2022/07/07 06:37:38;;;;;;;6.40;5.93;;;;;;;14.39;100.00;100437.06;5070582;28;20170;-75
2022/07/07 06:40:03;;;;;;;1.57;1.47;;;;;;;14.39;100.00;100442.56;5070171;28;20181;-74
2022/07/07 06:42:29;;;;;;;5.00;4.60;;;;;;;14.40;100.00;100438.66;5068554;28;20296;-75
2022/07/07 06:44:54;;;;;;;7.77;7.00;;;;;;;14.42;100.00;100441.88;5068703;28;20186;-74
2022/07/07 06:47:19;;;;;;;3.30;3.10;;;;;;;14.47;100.00;100441.72;5070314;28;20189;-75
2022/07/07 06:49:44;;;;;;;9.43;8.80;;;;;;;14.48;100.00;100443.31;5069916;28;20195;-73
2022/07/07 06:52:10;;;;;;;5.17;4.87;;;;;;;14.50;100.00;100438.28;5070508;28;20254;-73
2022/07/07 06:54:37;;;;;;;6.57;6.07;;;;;;;14.55;100.00;100441.63;5068548;28;20302;-74
2022/07/07 06:57:03;;;;;;;6.03;5.00;;;;;;;14.57;100.00;100438.53;5068723;28;20210;-73
2022/07/07 06:59:29;;;;;;;8.53;7.87;;;;;;;14.59;100.00;100439.00;5069893;28;20240;-73
2022/07/07 07:01:54;;;;;;;8.23;7.57;;;;;;;14.61;100.00;100442.22;5070154;28;20684;-75
2022/07/07 07:04:19;;;;;;;2.00;1.90;;;;;;;14.67;100.00;100437.31;5070187;28;20255;-74
2022/07/07 07:06:44;;;;;;;6.53;6.03;;;;;;;14.73;100.00;100438.69;5069942;28;20645;-74
2022/07/07 07:09:10;;;;;;;7.20;6.60;;;;;;;14.73;100.00;100442.25;5070082;28;20181;-74
2022/07/07 07:11:36;;;;;;;3.23;3.03;;;;;;;14.72;100.00;100445.34;5066919;28;20194;-74
2022/07/07 07:14:03;;;;;;;6.57;6.10;;;;;;;14.77;100.00;100439.66;5068077;28;20179;-74
2022/07/07 07:16:29;;;;;;;6.33;5.93;;;;;;;14.80;100.00;100445.28;5070125;28;20274;-74
2022/07/07 07:18:55;;;;;;;3.90;3.60;;;;;;;14.83;100.00;100444.59;5068249;28;20243;-73
2022/07/07 07:21:21;;;;;;;2.40;2.30;;;;;;;14.87;100.00;100442.75;5068061;28;20670;-74
2022/07/07 07:23:46;;;;;;;4.50;4.20;;;;;;;14.94;100.00;100444.97;5069551;28;20258;-73
2022/07/07 07:26:12;;;;;;;4.13;3.80;;;;;;;15.06;100.00;100441.44;5070258;28;20202;-73
2022/07/07 07:28:37;;;;;;;1.00;1.00;;;;;;;15.15;100.00;100442.13;5073049;28;20228;-74
2022/07/07 07:31:02;;;;;;;3.60;3.40;;;;;;;15.21;100.00;100448.22;5073538;28;20234;-72
2022/07/07 07:33:31;;;;;;;3.43;3.23;;;;;;;15.33;100.00;100443.50;5073485;28;20183;-73
2022/07/07 07:35:57;;;;;;;5.50;2.60;;;;;;;15.39;100.00;100455.13;5073456;28;20650;-74
2022/07/07 07:38:23;;;;;;;1.23;1.13;;;;;;;15.38;100.00;100450.75;5072592;28;20650;-73
2022/07/07 07:40:48;;;;;;;2.83;2.63;;;;;;;15.32;100.00;100452.09;5073448;28;20174;-73
2022/07/07 07:43:13;;;;;;;1.67;1.57;;;;;;;15.32;100.00;100450.16;5072947;28;20703;-73
2022/07/07 07:45:39;;;;;;;1.53;1.43;;;;;;;15.40;100.00;100448.47;5073135;28;20622;-73
2022/07/07 07:48:05;;;;;;;0.40;0.40;;;;;;;15.51;100.00;100444.09;5072474;28;20174;-76
2022/07/07 07:50:31;;;;;;;2.53;1.77;;;;;;;15.60;100.00;100449.50;5072866;28;20190;-77
2022/07/07 07:52:57;;;;;;;1.90;1.80;;;;;;;15.69;100.00;100451.00;5072556;28;20178;-76
2022/07/07 07:55:24;;;;;;;2.37;2.23;;;;;;;15.79;100.00;100448.94;5073101;28;20531;-75
2022/07/07 07:57:51;;;;;;;0.17;0.13;;;;;;;15.86;100.00;100449.94;5072554;28;20630;-73
2022/07/07 08:00:19;;;;;;;1.00;1.00;;;;;;;15.88;100.00;100450.41;5073150;28;20174;-73
2022/07/07 08:02:45;;;;;;;0.87;0.87;;;;;;;15.78;100.00;100448.13;5072634;28;20279;-75
2022/07/07 08:05:13;;;;;;;0.40;0.40;;;;;;;15.82;100.00;100443.53;5072694;28;20167;-73
2022/07/07 08:07:40;;;;;;;0.80;0.80;;;;;;;15.87;100.00;100440.53;5072470;28;20182;-76
2022/07/07 08:10:06;;;;;;;0.80;0.80;;;;;;;16.02;100.00;100442.56;5072263;28;20174;-74
2022/07/07 08:12:31;;;;;;;0.80;0.40;;;;;;;16.03;100.00;100454.41;5072280;28;20183;-74
2022/07/07 08:14:57;;;;;;;0.50;0.50;;;;;;;16.12;100.00;100446.00;5071701;28;20213;-75
2022/07/07 08:17:22;;;;;;;0.97;0.97;;;;;;;16.18;100.00;100450.09;5072368;28;20649;-75
2022/07/07 08:19:48;;;;;;;0.20;0.20;;;;;;;16.26;100.00;100451.94;5072374;28;20626;-74
2022/07/07 08:22:14;;;;;;;0.43;0.43;;;;;;;16.33;100.00;100452.13;5072356;28;20213;-75
2022/07/07 08:24:39;;;;;;;0.17;0.17;;;;;;;16.42;100.00;100447.28;5072356;28;20281;-75
2022/07/07 08:27:05;;;;;;;0.40;0.40;;;;;;;16.40;100.00;100455.09;5072107;28;20699;-74
2022/07/07 08:29:30;;;;;;;0.20;0.20;;;;;;;16.43;100.00;100443.38;5071895;28;20166;-73
2022/07/07 08:31:56;;;;;;;0.40;0.40;;;;;;;16.45;100.00;100449.34;5070567;28;20228;-75
2022/07/07 08:34:21;;;;;;;0.50;0.50;;;;;;;16.56;100.00;100450.44;5072212;28;20186;-75
2022/07/07 08:36:47;;;;;;;0.00;0.00;;;;;;;16.72;100.00;100452.47;5071886;28;20174;-73
2022/07/07 08:39:13;;;;;;;0.23;0.20;;;;;;;16.64;100.00;100455.00;5071249;28;20175;-75
2022/07/07 08:41:39;;;;;;;0.50;0.40;;;;;;;16.60;100.00;100448.56;5071972;28;20640;-74
2022/07/07 08:44:05;;;;;;;0.20;0.20;;;;;;;16.59;100.00;100446.97;5071972;28;20311;-73
2022/07/07 08:46:30;;;;;;;0.20;0.20;;;;;;;16.53;100.00;100461.38;5071848;28;20183;-73
2022/07/07 08:48:56;;;;;;;0.47;0.47;;;;;;;16.58;100.00;100464.69;5071555;28;20240;-74
2022/07/07 08:51:22;;;;;;;0.50;0.50;;;;;;;16.56;100.00;100475.25;5072026;28;20167;-76
2022/07/07 08:53:47;;;;;;;0.20;0.20;;;;;;;16.54;100.00;100469.31;5071842;28;20639;-75
2022/07/07 08:56:15;;;;;;;0.40;0.40;;;;;;;16.55;100.00;100470.09;5071873;28;20175;-75
2022/07/07 08:58:42;;;;;;;0.67;0.67;;;;;;;16.54;100.00;100479.53;5071228;28;20178;-75
2022/07/07 09:01:07;;;;;;;0.20;0.17;;;;;;;16.55;100.00;100472.88;5071615;28;20534;-76
2022/07/07 09:03:34;;;;;;;0.10;0.10;;;;;;;16.51;100.00;100477.47;5071982;28;20174;-75
2022/07/07 09:05:59;;;;;;;0.00;0.00;;;;;;;16.61;100.00;100480.53;5071689;28;20731;-74
2022/07/07 09:08:26;;;;;;;0.00;0.00;;;;;;;16.77;100.00;100485.31;5071004;28;20209;-74
2022/07/07 09:10:52;;;;;;;0.47;0.47;;;;;;;16.84;100.00;100477.25;5071545;28;20206;-75
2022/07/07 09:13:21;;;;;;;0.30;0.30;;;;;;;16.88;100.00;100484.47;5070866;28;20539;-75
2022/07/07 09:15:48;;;;;;;0.20;0.20;;;;;;;16.59;100.00;100493.88;5071387;28;20185;-75
2022/07/07 09:18:41;;;;;;;0.00;0.00;;;;;;;16.36;100.00;100501.09;5069435;28;20182;-77
2022/07/07 09:21:25;;;;;;;0.20;0.10;;;;;;;16.11;100.00;100496.78;5071142;28;20540;-75
2022/07/07 09:23:59;;;;;;;0.00;0.00;;;;;;;16.03;100.00;100509.50;5069993;28;20199;-74
2022/07/07 09:26:41;;;;;;;0.10;0.10;;;;;;;16.04;100.00;100500.91;5071320;28;20174;-74
2022/07/07 09:29:13;;;;;;;0.10;0.10;;;;;;;16.08;100.00;100502.97;5070797;28;20171;-75
2022/07/07 09:31:53;;;;;;;0.67;0.40;;;;;;;16.28;100.00;100508.31;5071202;28;20726;-73
2022/07/07 09:34:20;;;;;;;0.30;0.30;;;;;;;16.49;100.00;100523.88;5071232;28;20170;-73
2022/07/07 09:39:48;;;;;;;0.37;0.37;;;;;;;16.76;100.00;100523.16;5070982;28;20161;-74
2022/07/07 09:42:25;;;;;;;0.00;0.00;;;;;;;16.91;100.00;100538.94;5070986;28;20202;-74
2022/07/07 09:44:56;;;;;;;0.20;0.20;;;;;;;16.65;100.00;100533.06;5071008;28;20174;-74
2022/07/07 09:47:24;;;;;;;0.23;0.23;;;;;;;16.41;100.00;100531.16;5071061;28;20172;-74
2022/07/07 09:50:06;;;;;;;0.10;0.10;;;;;;;16.27;100.00;100548.09;5069768;28;20187;-74
2022/07/07 09:52:34;;;;;;;0.67;0.40;;;;;;;16.20;100.00;100545.13;5071074;28;20585;-74
2022/07/07 09:55:03;;;;;;;0.10;0.10;;;;;;;16.26;100.00;100553.94;5070937;28;20676;-75
2022/07/07 09:57:28;;;;;;;0.70;0.70;;;;;;;16.17;100.00;100565.09;5070790;28;20202;-75
2022/07/07 09:59:54;;;;;;;0.00;0.00;;;;;;;16.27;100.00;100559.09;5067972;28;20197;-75
2022/07/07 10:02:21;;;;;;;0.10;0.10;;;;;;;16.48;100.00;100558.94;5069905;28;20298;-74
2022/07/07 10:04:50;;;;;;;0.20;0.20;;;;;;;16.54;100.00;100560.31;5070277;28;20260;-75
2022/07/07 10:07:21;;;;;;;1.03;0.30;;;;;;;16.76;100.00;100572.00;5070551;28;20227;-75
2022/07/07 10:09:52;;;;;;;0.30;0.30;;;;;;;17.01;100.00;100567.22;5070373;28;20572;-77
2022/07/07 10:12:20;;;;;;;0.10;0.10;;;;;;;17.23;100.00;100575.75;5070846;28;20216;-77
2022/07/07 10:14:48;;;;;;;0.37;0.37;;;;;;;17.50;100.00;100571.34;5069711;28;20170;-75
2022/07/07 10:17:16;;;;;;;0.10;0.10;;;;;;;17.41;100.00;100583.69;5069075;28;20166;-77
2022/07/07 10:19:42;;;;;;;0.57;0.57;;;;;;;17.40;100.00;100577.38;5070348;28;20260;-77
2022/07/07 10:22:11;;;;;;;0.23;0.23;;;;;;;17.29;100.00;100564.44;5070611;28;20597;-75
2022/07/07 10:24:38;;;;;;;0.90;0.90;;;;;;;17.49;100.00;100568.91;5070757;28;20236;-77
2022/07/07 10:27:04;;;;;;;0.67;0.67;;;;;;;17.56;100.00;100591.22;5070388;28;20179;-77
2022/07/07 10:29:45;;;;;;;0.10;0.10;;;;;;;17.67;100.00;100578.47;5070115;28;20187;-78
2022/07/07 10:32:13;;;;;;;0.37;0.37;;;;;;;17.81;100.00;100575.31;5070491;28;20166;-76
2022/07/07 10:34:48;;;;;;;0.00;0.00;;;;;;;17.76;100.00;100590.16;5070442;28;20179;-76
2022/07/07 10:37:13;;;;;;;0.10;0.10;;;;;;;17.78;100.00;100596.13;5070348;28;20697;-75
2022/07/07 10:39:44;;;;;;;0.00;0.00;;;;;;;17.50;100.00;100598.97;5070033;28;20316;-76
2022/07/07 10:42:17;;;;;;;0.13;0.13;;;;;;;17.29;100.00;100603.91;5066607;28;20237;-76
2022/07/07 10:44:45;;;;;;;0.07;0.07;;;;;;;17.02;100.00;100601.94;5070055;28;20178;-77
2022/07/07 10:47:10;;;;;;;0.07;0.07;;;;;;;16.98;100.00;100604.59;5067353;28;20253;-74
2022/07/07 10:49:41;;;;;;;0.37;0.30;;;;;;;16.85;100.00;100609.34;5054647;28;20328;-74
2022/07/07 10:52:15;;;;;;;0.10;0.10;;;;;;;16.86;100.00;100615.69;5069385;28;20253;-77
2022/07/07 10:54:43;;;;;;;0.00;0.00;;;;;;;16.76;100.00;100621.69;5070204;28;20595;-75
2022/07/07 10:57:15;;;;;;;0.20;0.20;;;;;;;16.63;100.00;100627.19;5070017;28;20178;-77
2022/07/07 11:00:06;;;;;;;0.67;0.20;;;;;;;16.37;100.00;100624.03;5069992;28;20179;-75
2022/07/07 11:02:42;;;;;;;0.10;0.10;;;;;;;16.24;100.00;100630.69;5070506;28;20275;-75
2022/07/07 11:05:14;;;;;;;0.13;0.13;;;;;;;16.25;100.00;100630.34;5074141;28;20201;-77
2022/07/07 11:08:08;;;;;;;0.00;0.00;;;;;;;16.24;100.00;100631.50;5073545;28;20186;-75
2022/07/07 11:10:36;;;;;;;0.00;0.00;;;;;;;16.24;100.00;100625.19;5073829;28;20174;-75
2022/07/07 11:13:14;;;;;;;0.10;0.10;;;;;;;16.17;100.00;100628.50;5072650;28;20642;-76
2022/07/07 11:15:40;;;;;;;0.20;0.20;;;;;;;16.21;100.00;100634.13;5073695;28;20163;-76
2022/07/07 11:18:14;;;;;;;0.70;0.40;;;;;;;16.03;100.00;100636.28;5071953;28;20224;-75
2022/07/07 11:20:57;;;;;;;0.33;0.33;;;;;;;15.97;100.00;100637.69;5072837;28;20174;-74